Time;durP1;ratioP1;P1;durP2;ratioP2;P2;SDS_P1;SDS_P2;PMS_P1;PMS_P2;Temp;Humidity;BMP_temperature;BMP_pressure;BME280_temperature;BME280_humidity;BME280_pressure;Samples;Min_cycle;Max_cycle;Signal;HPM_P1;HPM_P2
2023/08/21 00:00:00;;;;;;;6.50;4.93;;;17.80;99.90;;;;;;5037374;28;20604;-55
2023/08/21 00:02:28;;;;;;;5.97;4.93;;;17.80;99.90;;;;;;5023112;28;20474;-56
2023/08/21 00:04:57;;;;;;;8.37;5.30;;;17.80;99.90;;;;;;5030733;28;20845;-57
2023/08/21 00:07:25;;;;;;;4.70;4.33;;;17.70;99.90;;;;;;5040882;28;20501;-56
2023/08/21 00:09:52;;;;;;;6.13;4.67;;;17.70;99.90;;;;;;5046600;28;20558;-56
2023/08/21 00:12:20;;;;;;;6.20;4.73;;;17.70;99.90;;;;;;5047710;28;20480;-57
2023/08/21 00:14:50;;;;;;;6.87;5.03;;;17.70;99.90;;;;;;5041627;28;20593;-57
2023/08/21 00:17:18;;;;;;;6.10;4.53;;;17.60;99.90;;;;;;5040845;28;20917;-57
2023/08/21 00:19:46;;;;;;;5.23;4.70;;;17.60;99.90;;;;;;5041717;28;20487;-57
2023/08/21 00:22:14;;;;;;;5.83;5.27;;;17.60;99.90;;;;;;5036351;28;20467;-57
2023/08/21 00:24:42;;;;;;;5.53;4.53;;;17.60;99.90;;;;;;5043050;28;20564;-56
2023/08/21 00:27:10;;;;;;;6.23;5.07;;;17.50;99.90;;;;;;5039008;28;20524;-56
2023/08/21 00:29:38;;;;;;;5.83;4.73;;;17.50;99.90;;;;;;5045262;28;20466;-57
2023/08/21 00:32:07;;;;;;;7.67;5.43;;;17.50;99.90;;;;;;5038622;28;20474;-56
2023/08/21 00:34:35;;;;;;;6.77;5.40;;;17.50;99.90;;;;;;5036812;28;20873;-56
2023/08/21 00:37:03;;;;;;;6.70;4.70;;;17.40;99.90;;;;;;5040013;28;20563;-57
2023/08/21 00:39:31;;;;;;;5.13;4.63;;;17.40;99.90;;;;;;5039311;28;21164;-56
2023/08/21 00:41:59;;;;;;;6.33;4.80;;;17.40;99.90;;;;;;5033599;28;20476;-56
2023/08/21 00:44:27;;;;;;;4.90;4.10;;;17.30;99.90;;;;;;5037382;28;20521;-55
2023/08/21 00:46:55;;;;;;;5.20;4.70;;;17.30;99.90;;;;;;5042623;28;21017;-56
2023/08/21 00:49:24;;;;;;;5.77;4.77;;;17.30;99.90;;;;;;5039267;28;20546;-57
2023/08/21 00:51:53;;;;;;;5.30;4.80;;;17.30;99.90;;;;;;5047066;28;21066;-56
2023/08/21 00:54:21;;;;;;;5.83;4.93;;;17.30;99.90;;;;;;5043963;28;20503;-56
2023/08/21 00:56:52;;;;;;;6.17;4.50;;;17.20;99.90;;;;;;5043358;28;20490;-55
2023/08/21 00:59:20;;;;;;;6.00;4.90;;;17.20;99.90;;;;;;5044695;28;20494;-55
2023/08/21 01:01:48;;;;;;;5.03;4.50;;;17.20;99.90;;;;;;5043504;28;21148;-57
2023/08/21 01:04:16;;;;;;;5.13;4.63;;;17.20;99.90;;;;;;5037926;28;20514;-57
2023/08/21 01:06:46;;;;;;;6.10;5.13;;;17.20;99.90;;;;;;5041268;28;20584;-57
2023/08/21 01:09:21;;;;;;;5.67;5.10;;;17.10;99.90;;;;;;5046697;28;20470;-56
2023/08/21 01:11:55;;;;;;;6.20;4.70;;;17.10;99.90;;;;;;5045075;28;21092;-57
2023/08/21 01:14:29;;;;;;;6.97;5.03;;;17.10;99.90;;;;;;5036785;28;20495;-56
2023/08/21 01:17:00;;;;;;;6.07;4.60;;;17.10;99.90;;;;;;5034907;28;20544;-57
2023/08/21 01:19:37;;;;;;;7.40;5.60;;;17.00;99.90;;;;;;5040505;28;20494;-57
2023/08/21 01:22:07;;;;;;;11.20;5.53;;;17.00;99.90;;;;;;5039063;28;20476;-56
2023/08/21 01:24:36;;;;;;;5.40;4.90;;;17.00;99.90;;;;;;5037448;28;20497;-56
2023/08/21 01:27:04;;;;;;;5.70;4.83;;;17.00;99.90;;;;;;5037796;28;20498;-57
2023/08/21 01:29:33;;;;;;;5.53;4.93;;;16.90;99.90;;;;;;5039813;28;20739;-56
2023/08/21 01:32:07;;;;;;;6.63;4.97;;;16.90;99.90;;;;;;5048722;28;20470;-57
2023/08/21 01:34:37;;;;;;;5.60;5.03;;;16.90;99.90;;;;;;5044346;28;22159;-57
2023/08/21 01:37:06;;;;;;;5.20;4.70;;;16.90;99.90;;;;;;5050828;28;21074;-57
2023/08/21 01:39:36;;;;;;;5.27;4.60;;;16.90;99.90;;;;;;5050154;28;20472;-57
2023/08/21 01:42:04;;;;;;;5.63;4.93;;;16.90;99.90;;;;;;5051424;28;20519;-57
2023/08/21 01:44:33;;;;;;;5.40;4.90;;;16.80;99.90;;;;;;5051151;28;20859;-56
2023/08/21 01:47:01;;;;;;;5.43;5.03;;;16.80;99.90;;;;;;5054605;28;20498;-56
2023/08/21 01:49:29;;;;;;;5.50;4.80;;;16.80;99.90;;;;;;5034867;28;20592;-57
2023/08/21 01:51:57;;;;;;;4.90;4.40;;;16.70;99.90;;;;;;5035677;28;20982;-57
2023/08/21 01:54:25;;;;;;;5.67;5.17;;;16.70;99.90;;;;;;5038703;28;21113;-57
2023/08/21 01:56:55;;;;;;;5.43;4.93;;;16.70;99.90;;;;;;5040008;28;20572;-57
2023/08/21 01:59:24;;;;;;;5.80;4.83;;;16.70;99.90;;;;;;5044060;28;20473;-56
2023/08/21 02:01:53;;;;;;;5.70;5.20;;;16.60;99.90;;;;;;5045610;28;20462;-57
2023/08/21 02:04:21;;;;;;;6.00;5.40;;;16.60;99.90;;;;;;5046904;28;22479;-57
2023/08/21 02:06:49;;;;;;;6.73;5.93;;;16.70;99.90;;;;;;5041224;28;20622;-58
2023/08/21 02:09:17;;;;;;;7.50;5.47;;;16.60;99.90;;;;;;5035767;28;20832;-58
2023/08/21 02:11:45;;;;;;;5.63;5.13;;;16.60;99.90;;;;;;5048584;28;20633;-57
2023/08/21 02:14:15;;;;;;;8.90;6.00;;;16.60;99.90;;;;;;5047366;28;20497;-57
2023/08/21 02:16:43;;;;;;;6.67;6.07;;;16.60;99.90;;;;;;5045571;28;20477;-57
2023/08/21 02:19:11;;;;;;;7.07;6.30;;;16.50;99.90;;;;;;5042054;28;20550;-57
2023/08/21 02:21:39;;;;;;;7.70;6.07;;;16.50;99.90;;;;;;5050798;28;20598;-57
2023/08/21 02:24:07;;;;;;;6.07;5.47;;;16.50;99.90;;;;;;5047838;28;20569;-57
2023/08/21 02:26:35;;;;;;;7.07;5.43;;;16.50;99.90;;;;;;5040113;28;20577;-57
2023/08/21 02:29:03;;;;;;;6.93;5.00;;;16.50;99.90;;;;;;5034810;28;20494;-57
2023/08/21 02:31:32;;;;;;;5.53;5.03;;;16.40;99.90;;;;;;5036061;28;20516;-57
2023/08/21 02:34:00;;;;;;;5.80;5.20;;;16.40;99.90;;;;;;5040341;28;20485;-56
2023/08/21 02:36:29;;;;;;;5.53;5.03;;;16.40;99.90;;;;;;5036328;28;21034;-57
2023/08/21 02:38:57;;;;;;;6.37;5.10;;;16.40;99.90;;;;;;5041478;28;20546;-56
2023/08/21 02:41:25;;;;;;;5.10;4.70;;;16.40;99.90;;;;;;5045238;28;20476;-55
2023/08/21 02:43:53;;;;;;;5.77;5.20;;;16.40;99.90;;;;;;5041425;28;20536;-57
2023/08/21 02:46:21;;;;;;;6.63;6.03;;;16.40;99.90;;;;;;5038804;28;20488;-56
2023/08/21 02:48:51;;;;;;;6.60;5.90;;;16.30;99.90;;;;;;5041432;28;20542;-57
2023/08/21 02:51:19;;;;;;;7.57;5.50;;;16.30;99.90;;;;;;5041070;28;20498;-57
2023/08/21 02:53:47;;;;;;;5.80;5.30;;;16.30;99.90;;;;;;5048433;28;20494;-57
2023/08/21 02:56:15;;;;;;;6.53;5.60;;;16.30;99.90;;;;;;5036350;28;20518;-56
2023/08/21 02:58:43;;;;;;;5.73;5.20;;;16.30;99.90;;;;;;5036000;28;20466;-57
2023/08/21 03:01:11;;;;;;;7.97;5.17;;;16.30;99.90;;;;;;5037157;28;20614;-56
2023/08/21 03:03:39;;;;;;;6.30;5.70;;;16.20;99.90;;;;;;5046634;28;20518;-56
2023/08/21 03:06:08;;;;;;;6.60;5.47;;;16.20;99.90;;;;;;5049274;28;20502;-57
2023/08/21 03:08:36;;;;;;;6.53;5.20;;;16.30;99.90;;;;;;5047061;28;20502;-57
2023/08/21 03:11:04;;;;;;;6.23;5.63;;;16.20;99.90;;;;;;5048254;28;21068;-56
2023/08/21 03:13:32;;;;;;;6.53;5.23;;;16.20;99.90;;;;;;5048482;28;20937;-57
2023/08/21 03:16:00;;;;;;;6.13;5.57;;;16.20;99.90;;;;;;5038418;28;21046;-56
2023/08/21 03:18:31;;;;;;;7.07;5.77;;;16.20;99.90;;;;;;5040553;28;20477;-57
2023/08/21 03:20:59;;;;;;;6.40;5.70;;;16.20;99.90;;;;;;5036206;28;20481;-57
2023/08/21 03:23:29;;;;;;;6.20;5.40;;;16.20;99.90;;;;;;5041279;28;20491;-57
2023/08/21 03:25:57;;;;;;;6.50;5.77;;;16.10;99.90;;;;;;5052728;28;20486;-57
2023/08/21 03:28:25;;;;;;;7.60;5.90;;;16.10;99.90;;;;;;5042521;28;20501;-57
2023/08/21 03:30:54;;;;;;;7.60;5.50;;;16.10;99.90;;;;;;5035149;28;20466;-57
2023/08/21 03:33:22;;;;;;;6.83;6.13;;;16.10;99.90;;;;;;5054534;28;20497;-57
2023/08/21 03:35:54;;;;;;;7.30;6.20;;;16.10;99.90;;;;;;5052947;28;20492;-57
2023/08/21 03:38:22;;;;;;;11.63;5.93;;;16.10;99.90;;;;;;5058008;28;20489;-57
2023/08/21 03:40:52;;;;;;;7.73;5.90;;;16.00;99.90;;;;;;5051896;28;20560;-57
2023/08/21 03:43:20;;;;;;;9.60;5.43;;;16.00;99.90;;;;;;5054042;28;20577;-57
2023/08/21 03:45:47;;;;;;;7.43;6.10;;;16.00;99.90;;;;;;5051775;28;20481;-57
2023/08/21 03:48:15;;;;;;;7.43;5.60;;;16.10;99.90;;;;;;5046671;28;20485;-56
2023/08/21 03:50:44;;;;;;;7.47;5.80;;;16.00;99.90;;;;;;5054200;28;20557;-57
2023/08/21 03:53:12;;;;;;;6.80;6.10;;;16.00;99.90;;;;;;5050673;28;20624;-57
2023/08/21 03:55:40;;;;;;;7.30;6.13;;;16.00;99.90;;;;;;5053012;28;20494;-57
2023/08/21 03:58:09;;;;;;;7.03;6.33;;;16.00;99.90;;;;;;5050922;28;20553;-57
2023/08/21 04:00:37;;;;;;;6.57;5.80;;;16.00;99.90;;;;;;5051865;28;20955;-57
2023/08/21 04:03:05;;;;;;;6.33;5.73;;;16.00;99.90;;;;;;5044120;28;20489;-57
2023/08/21 04:05:33;;;;;;;13.07;6.60;;;15.90;99.90;;;;;;5052481;28;21130;-57
2023/08/21 04:08:01;;;;;;;8.70;6.87;;;15.90;99.90;;;;;;5050345;28;20597;-56
2023/08/21 04:10:29;;;;;;;7.00;6.30;;;15.90;99.90;;;;;;5052525;28;20564;-56
2023/08/21 04:12:57;;;;;;;6.70;5.57;;;15.90;99.90;;;;;;5046524;28;20574;-57
2023/08/21 04:15:26;;;;;;;8.73;5.77;;;15.90;99.90;;;;;;5043696;28;22586;-57
2023/08/21 04:17:54;;;;;;;8.13;6.87;;;15.90;99.90;;;;;;5043559;28;20527;-57
2023/08/21 04:20:23;;;;;;;8.93;5.90;;;15.90;99.90;;;;;;5041126;28;20466;-57
2023/08/21 04:22:51;;;;;;;7.33;6.63;;;15.90;99.90;;;;;;5045960;28;20504;-57
2023/08/21 04:25:19;;;;;;;8.43;6.70;;;15.90;99.90;;;;;;5035230;28;20976;-57
2023/08/21 04:27:47;;;;;;;7.40;6.30;;;15.90;99.90;;;;;;5035917;28;20531;-57
2023/08/21 04:30:15;;;;;;;6.77;5.80;;;15.90;99.90;;;;;;5043908;28;20498;-57
2023/08/21 04:32:44;;;;;;;8.67;6.10;;;15.90;99.90;;;;;;5035610;28;21078;-56
2023/08/21 04:35:12;;;;;;;7.47;6.37;;;15.90;99.90;;;;;;5037701;28;20559;-57
2023/08/21 04:37:47;;;;;;;6.67;5.97;;;15.90;99.90;;;;;;5041784;28;20498;-56
2023/08/21 04:40:17;;;;;;;7.37;5.90;;;15.90;99.90;;;;;;5047977;28;20469;-57
2023/08/21 04:42:45;;;;;;;8.13;6.50;;;15.90;99.90;;;;;;5047582;28;20511;-57
2023/08/21 04:45:13;;;;;;;10.10;7.20;;;15.90;99.90;;;;;;5043137;28;20486;-57
2023/08/21 04:47:41;;;;;;;8.07;6.10;;;15.90;99.90;;;;;;5041962;28;20465;-57
2023/08/21 04:50:13;;;;;;;6.67;5.90;;;15.90;99.90;;;;;;5038618;28;21223;-57
2023/08/21 04:52:41;;;;;;;6.77;5.43;;;15.90;99.90;;;;;;5027533;28;20641;-57
2023/08/21 04:55:09;;;;;;;8.50;6.40;;;16.00;99.90;;;;;;5042881;28;20475;-56
2023/08/21 04:57:37;;;;;;;6.70;5.97;;;16.00;99.90;;;;;;5039664;28;20469;-56
2023/08/21 05:00:06;;;;;;;7.80;7.00;;;16.00;99.90;;;;;;5042712;28;20494;-56
2023/08/21 05:02:35;;;;;;;9.40;7.43;;;16.00;99.90;;;;;;5042644;28;20475;-56
2023/08/21 05:05:04;;;;;;;6.70;5.83;;;16.10;99.90;;;;;;5043188;28;20556;-57
2023/08/21 05:07:34;;;;;;;8.17;6.60;;;16.10;99.90;;;;;;5048332;28;20531;-56
2023/08/21 05:10:02;;;;;;;7.90;6.27;;;16.10;99.90;;;;;;5043805;28;21015;-56
2023/08/21 05:12:30;;;;;;;7.10;6.40;;;16.20;99.90;;;;;;5035231;28;20478;-56
2023/08/21 05:14:58;;;;;;;7.63;6.83;;;16.20;99.90;;;;;;5029778;28;20607;-55
2023/08/21 05:17:26;;;;;;;7.80;6.80;;;16.20;99.90;;;;;;5037734;28;20500;-56
2023/08/21 05:19:54;;;;;;;8.00;7.20;;;16.30;99.90;;;;;;5028908;28;20466;-56
2023/08/21 05:22:22;;;;;;;7.77;7.07;;;16.30;99.90;;;;;;5027465;28;20546;-55
2023/08/21 05:24:52;;;;;;;7.63;6.50;;;16.40;99.90;;;;;;5035634;28;21003;-57
2023/08/21 05:27:20;;;;;;;7.80;7.00;;;16.40;99.90;;;;;;5036906;28;20462;-57
2023/08/21 05:29:49;;;;;;;8.13;7.07;;;16.40;99.90;;;;;;5036279;28;20524;-56
2023/08/21 05:32:17;;;;;;;9.23;7.57;;;16.50;99.90;;;;;;5034145;28;20493;-57
2023/08/21 05:34:45;;;;;;;7.70;7.00;;;16.50;99.90;;;;;;5047859;28;20533;-57
2023/08/21 05:37:13;;;;;;;8.00;7.20;;;16.60;99.90;;;;;;5043863;28;20559;-57
2023/08/21 05:39:41;;;;;;;9.07;7.43;;;16.60;99.90;;;;;;5042638;28;20946;-56
2023/08/21 05:42:11;;;;;;;7.73;6.97;;;16.70;99.90;;;;;;5047917;28;20530;-57
2023/08/21 05:44:39;;;;;;;8.70;7.80;;;16.70;99.90;;;;;;5054080;28;20529;-58
2023/08/21 05:47:07;;;;;;;7.30;6.27;;;16.70;99.90;;;;;;5054103;28;20468;-58
2023/08/21 05:49:35;;;;;;;7.97;6.83;;;16.80;99.90;;;;;;5051812;28;20491;-58
2023/08/21 05:52:03;;;;;;;8.60;6.67;;;16.90;99.90;;;;;;5053189;28;20493;-57
2023/08/21 05:54:31;;;;;;;8.87;6.60;;;16.90;99.90;;;;;;5051406;28;20501;-58
2023/08/21 05:56:59;;;;;;;7.57;6.60;;;17.00;99.90;;;;;;5049286;28;20548;-58
2023/08/21 05:59:32;;;;;;;8.33;6.03;;;17.10;99.90;;;;;;5049607;28;20560;-58
2023/08/21 06:02:00;;;;;;;8.70;6.10;;;17.10;99.90;;;;;;5053214;28;20466;-58
2023/08/21 06:04:28;;;;;;;11.20;6.33;;;17.20;99.90;;;;;;5042901;28;20627;-58
2023/08/21 06:06:56;;;;;;;6.77;5.63;;;17.30;99.90;;;;;;5041570;28;20540;-58
2023/08/21 06:09:25;;;;;;;9.33;5.20;;;17.30;99.90;;;;;;5035702;28;20599;-57
2023/08/21 06:11:53;;;;;;;9.13;5.23;;;17.40;99.90;;;;;;5036993;28;20978;-58
2023/08/21 06:14:28;;;;;;;9.37;5.27;;;17.40;99.90;;;;;;5038482;28;20552;-58
2023/08/21 06:16:57;;;;;;;8.97;5.27;;;17.50;99.90;;;;;;5027485;28;20513;-58
2023/08/21 06:19:27;;;;;;;7.20;4.10;;;17.60;99.90;;;;;;5021854;28;20479;-58
2023/08/21 06:21:55;;;;;;;7.10;4.30;;;17.60;99.90;;;;;;5021742;28;20595;-58
2023/08/21 06:24:23;;;;;;;6.50;4.50;;;17.70;99.90;;;;;;5027307;28;20533;-58
2023/08/21 06:26:52;;;;;;;6.00;4.50;;;17.70;99.90;;;;;;5044507;28;20474;-57
2023/08/21 06:29:21;;;;;;;7.07;4.67;;;17.80;99.90;;;;;;5034457;28;20471;-58
2023/08/21 06:31:49;;;;;;;9.13;4.30;;;17.90;99.90;;;;;;5034229;28;20553;-58
2023/08/21 06:34:19;;;;;;;6.57;3.83;;;17.90;99.90;;;;;;5045533;28;20936;-59
2023/08/21 06:36:47;;;;;;;8.50;4.33;;;18.00;99.90;;;;;;5039179;28;20493;-58
2023/08/21 06:39:15;;;;;;;6.23;3.60;;;18.00;99.90;;;;;;5036578;28;20557;-59
2023/08/21 06:41:43;;;;;;;9.00;3.87;;;18.10;99.90;;;;;;5044159;28;20481;-58
2023/08/21 06:44:11;;;;;;;4.93;3.07;;;18.10;99.90;;;;;;5039472;28;20593;-58
2023/08/21 06:46:39;;;;;;;8.63;3.70;;;18.20;99.90;;;;;;5037484;28;21009;-56
2023/08/21 06:49:07;;;;;;;11.80;4.30;;;18.20;99.90;;;;;;5042559;28;20477;-56
2023/08/21 06:51:36;;;;;;;7.47;3.40;;;18.30;99.90;;;;;;5053137;28;20711;-57
2023/08/21 06:54:04;;;;;;;5.43;3.17;;;18.30;99.90;;;;;;5041463;28;20568;-56
2023/08/21 06:56:33;;;;;;;9.43;3.30;;;18.40;99.90;;;;;;5046812;28;21098;-56
2023/08/21 06:59:01;;;;;;;5.70;3.00;;;18.50;99.90;;;;;;5039204;28;20561;-56
2023/08/21 07:01:29;;;;;;;7.40;3.50;;;18.50;99.90;;;;;;5052579;28;20844;-57
2023/08/21 07:03:58;;;;;;;7.57;2.73;;;18.60;99.90;;;;;;5047444;28;22829;-57
2023/08/21 07:06:28;;;;;;;6.10;2.70;;;18.70;99.90;;;;;;5044661;28;20999;-56
2023/08/21 07:08:57;;;;;;;6.13;2.80;;;18.70;99.90;;;;;;5046069;28;20530;-57
2023/08/21 07:11:25;;;;;;;5.33;2.90;;;18.70;99.90;;;;;;5038980;28;21686;-56
2023/08/21 07:13:53;;;;;;;5.30;2.40;;;18.70;99.90;;;;;;5043391;28;20533;-56
2023/08/21 07:16:21;;;;;;;4.80;3.00;;;18.70;99.90;;;;;;5042210;28;20486;-57
2023/08/21 07:18:49;;;;;;;6.13;2.87;;;18.70;99.90;;;;;;5041755;28;21220;-57
2023/08/21 07:21:17;;;;;;;7.07;3.30;;;18.70;99.90;;;;;;5042868;28;20466;-57
2023/08/21 07:24:01;;;;;;;6.47;3.40;;;18.80;99.90;;;;;;5041619;28;20504;-59
2023/08/21 07:26:31;;;;;;;5.50;2.97;;;18.80;99.90;;;;;;5043646;28;20493;-56
2023/08/21 07:28:59;;;;;;;6.13;2.83;;;18.90;99.90;;;;;;5038013;28;20869;-57
2023/08/21 07:31:28;;;;;;;4.90;2.53;;;19.00;99.90;;;;;;5042338;28;20576;-56
2023/08/21 07:33:56;;;;;;;3.33;2.33;;;19.00;99.90;;;;;;5047143;28;20505;-57
2023/08/21 07:36:24;;;;;;;4.50;2.50;;;19.10;99.90;;;;;;5048568;28;20580;-56
2023/08/21 07:38:52;;;;;;;5.43;2.90;;;19.20;99.90;;;;;;5048811;28;20514;-62
2023/08/21 07:41:21;;;;;;;5.43;2.37;;;19.20;99.90;;;;;;5049823;28;20538;-61
2023/08/21 07:43:52;;;;;;;5.03;2.90;;;19.30;99.90;;;;;;5045120;28;20546;-61
2023/08/21 07:46:20;;;;;;;4.37;2.30;;;19.30;99.90;;;;;;5043783;28;20687;-57
2023/08/21 07:48:49;;;;;;;4.00;2.00;;;19.40;99.90;;;;;;5044967;28;20727;-61
2023/08/21 07:51:17;;;;;;;4.07;2.43;;;19.40;99.90;;;;;;5042046;28;20498;-61
2023/08/21 07:53:45;;;;;;;2.47;2.00;;;19.40;99.90;;;;;;5044013;28;20581;-61
2023/08/21 07:56:13;;;;;;;3.37;2.33;;;19.40;99.90;;;;;;5041176;28;20585;-60
2023/08/21 07:58:42;;;;;;;3.77;1.90;;;19.50;99.90;;;;;;5041023;28;20466;-62
2023/08/21 08:01:10;;;;;;;5.40;2.10;;;19.50;99.90;;;;;;5042709;28;20927;-62
2023/08/21 08:03:38;;;;;;;5.70;2.40;;;19.60;99.90;;;;;;5046074;28;21034;-60
2023/08/21 08:06:06;;;;;;;3.23;2.07;;;19.60;99.90;;;;;;5041430;28;21047;-60
2023/08/21 08:08:34;;;;;;;3.40;2.00;;;19.70;99.90;;;;;;5043248;28;20474;-61
2023/08/21 08:11:03;;;;;;;5.00;2.50;;;19.70;99.90;;;;;;5047023;28;20585;-59
2023/08/21 08:13:33;;;;;;;4.00;1.90;;;19.70;99.90;;;;;;5045218;28;20494;-60
2023/08/21 08:16:02;;;;;;;4.03;2.10;;;19.80;99.90;;;;;;5042525;28;20600;-61
2023/08/21 08:18:30;;;;;;;5.27;2.47;;;19.80;99.90;;;;;;5049624;28;20543;-60
2023/08/21 08:20:58;;;;;;;2.77;2.17;;;19.90;99.90;;;;;;5051968;28;20566;-59
2023/08/21 08:23:26;;;;;;;3.43;2.20;;;20.00;99.90;;;;;;5052411;28;21104;-60
2023/08/21 08:25:54;;;;;;;2.53;1.60;;;20.10;99.90;;;;;;5038918;28;20483;-60
2023/08/21 08:28:22;;;;;;;2.93;1.50;;;20.10;99.90;;;;;;5043617;28;20474;-60
2023/08/21 08:30:51;;;;;;;3.70;1.50;;;20.10;99.90;;;;;;5043153;28;20581;-61
2023/08/21 08:33:20;;;;;;;2.40;1.43;;;20.20;99.90;;;;;;5039913;28;20592;-60
2023/08/21 08:35:48;;;;;;;3.27;1.77;;;20.20;99.90;;;;;;5043528;28;21026;-61
2023/08/21 08:38:16;;;;;;;2.37;1.87;;;20.30;99.90;;;;;;5044617;28;20911;-58
2023/08/21 08:40:48;;;;;;;3.13;1.50;;;20.40;99.90;;;;;;5049906;28;20568;-58
2023/08/21 08:43:16;;;;;;;2.27;1.47;;;20.50;99.90;;;;;;5051904;28;21010;-58
2023/08/21 08:45:48;;;;;;;2.60;1.60;;;20.50;99.90;;;;;;5045031;28;20495;-58
2023/08/21 08:48:17;;;;;;;3.70;1.47;;;20.50;99.90;;;;;;5041237;28;20494;-61
2023/08/21 08:50:48;;;;;;;3.43;1.53;;;20.40;99.90;;;;;;5039717;28;20471;-62
2023/08/21 08:53:17;;;;;;;2.10;1.67;;;20.50;99.90;;;;;;5044471;28;20490;-61
2023/08/21 08:55:45;;;;;;;3.67;1.47;;;20.60;99.90;;;;;;5039767;28;20499;-61
2023/08/21 08:58:13;;;;;;;3.00;1.50;;;20.70;99.90;;;;;;5042994;28;20561;-62
2023/08/21 09:00:42;;;;;;;3.27;1.40;;;20.70;99.90;;;;;;5040596;28;20916;-62
2023/08/21 09:03:12;;;;;;;4.70;1.70;;;20.80;99.90;;;;;;5040427;28;21219;-62
2023/08/21 09:05:41;;;;;;;2.87;1.53;;;20.80;99.90;;;;;;5039495;28;20489;-61
2023/08/21 09:08:14;;;;;;;4.37;1.50;;;20.90;99.90;;;;;;5043355;28;20477;-61
2023/08/21 09:10:45;;;;;;;3.40;1.20;;;20.90;99.90;;;;;;5043941;28;20569;-61
2023/08/21 09:13:15;;;;;;;1.53;1.10;;;20.90;99.90;;;;;;5045845;28;20616;-61
2023/08/21 09:15:43;;;;;;;3.47;2.07;;;20.90;99.90;;;;;;5044949;28;20873;-61
2023/08/21 09:18:12;;;;;;;3.33;1.60;;;21.00;99.90;;;;;;5039647;28;20474;-61
2023/08/21 09:20:40;;;;;;;1.90;1.30;;;21.10;99.90;;;;;;5035497;28;20561;-61
2023/08/21 09:23:09;;;;;;;3.23;1.37;;;21.20;99.90;;;;;;5044134;28;20494;-61
2023/08/21 09:25:40;;;;;;;6.03;2.40;;;21.20;99.90;;;;;;5049452;28;21070;-61
2023/08/21 09:28:09;;;;;;;3.00;1.73;;;21.20;99.90;;;;;;5042620;28;20584;-61
2023/08/21 09:30:47;;;;;;;5.20;1.73;;;21.20;99.90;;;;;;5035359;28;20850;-62
2023/08/21 09:33:19;;;;;;;4.60;1.53;;;21.20;99.90;;;;;;5039466;28;20493;-60
2023/08/21 09:35:47;;;;;;;2.83;1.37;;;21.30;99.90;;;;;;5047386;28;20474;-61
2023/08/21 09:38:16;;;;;;;2.00;1.73;;;21.40;99.90;;;;;;5047598;28;20818;-58
2023/08/21 09:40:51;;;;;;;3.20;1.53;;;21.40;99.90;;;;;;5044427;28;20524;-57
2023/08/21 09:43:21;;;;;;;5.17;1.70;;;21.50;99.90;;;;;;5052955;28;20476;-58
2023/08/21 09:45:50;;;;;;;4.57;1.57;;;21.60;99.90;;;;;;5048195;28;20571;-58
2023/08/21 09:48:18;;;;;;;3.90;1.33;;;21.60;99.90;;;;;;5034719;28;20948;-57
2023/08/21 09:50:47;;;;;;;3.70;1.47;;;21.60;99.90;;;;;;5041751;28;20553;-59
2023/08/21 09:53:16;;;;;;;1.83;1.30;;;21.70;99.90;;;;;;5038698;28;20842;-57
2023/08/21 09:55:45;;;;;;;2.20;1.40;;;21.80;99.90;;;;;;5039370;28;20518;-59
2023/08/21 09:58:14;;;;;;;3.53;1.57;;;21.80;99.90;;;;;;5045548;28;20462;-58
2023/08/21 10:00:44;;;;;;;2.17;1.20;;;21.80;99.90;;;;;;5042256;28;20462;-58
2023/08/21 10:03:13;;;;;;;2.93;1.70;;;21.80;99.90;;;;;;5045128;28;20485;-59
2023/08/21 10:05:41;;;;;;;3.77;1.70;;;21.90;99.90;;;;;;5017114;28;21441;-59
2023/08/21 10:08:10;;;;;;;2.37;1.60;;;21.90;99.90;;;;;;5008306;28;20479;-58
2023/08/21 10:10:39;;;;;;;3.43;1.53;;;21.90;99.90;;;;;;5012953;28;20559;-59
2023/08/21 10:13:09;;;;;;;2.40;1.50;;;22.00;99.90;;;;;;5009277;28;20534;-60
2023/08/21 10:15:39;;;;;;;1.83;1.60;;;22.10;99.90;;;;;;5028478;28;20486;-60
2023/08/21 10:18:21;;;;;;;2.73;1.60;;;22.10;99.90;;;;;;5051051;28;21138;-59
2023/08/21 10:20:49;;;;;;;3.20;1.60;;;22.20;99.90;;;;;;5046749;28;20497;-60
2023/08/21 10:23:28;;;;;;;4.43;2.00;;;22.20;99.90;;;;;;5036727;28;20778;-57
2023/08/21 10:25:56;;;;;;;2.93;1.80;;;22.20;99.90;;;;;;5037475;28;21031;-58
2023/08/21 10:28:48;;;;;;;1.87;1.23;;;22.40;99.90;;;;;;5042054;28;20475;-57
2023/08/21 10:31:27;;;;;;;2.10;1.40;;;22.50;99.90;;;;;;5041290;28;20463;-56
2023/08/21 10:33:55;;;;;;;2.20;1.50;;;22.60;99.90;;;;;;5050437;28;20490;-57
2023/08/21 10:37:12;;;;;;;2.87;1.50;;;22.60;99.90;;;;;;5043019;28;20865;-57
2023/08/21 10:39:53;;;;;;;2.67;1.40;;;22.70;99.90;;;;;;5049751;28;20470;-57
2023/08/21 10:42:38;;;;;;;2.33;1.57;;;22.60;99.90;;;;;;5052682;28;20516;-57
2023/08/21 10:45:13;;;;;;;3.00;1.60;;;22.70;99.90;;;;;;5050941;28;20509;-58
2023/08/21 10:47:41;;;;;;;2.40;1.60;;;22.70;99.90;;;;;;5046215;28;20554;-59
2023/08/21 10:50:10;;;;;;;2.33;1.30;;;22.70;99.90;;;;;;5047819;28;20589;-57
2023/08/21 10:52:41;;;;;;;1.53;1.30;;;22.80;99.90;;;;;;5054147;28;20573;-58
2023/08/21 10:55:10;;;;;;;2.53;1.40;;;22.90;99.90;;;;;;5050327;28;20577;-57
2023/08/21 10:57:40;;;;;;;1.90;0.90;;;22.90;99.90;;;;;;5049686;28;22144;-57
2023/08/21 11:00:10;;;;;;;2.30;1.40;;;22.90;99.90;;;;;;5043646;28;21100;-56
2023/08/21 11:02:41;;;;;;;3.40;1.43;;;23.00;99.90;;;;;;5042012;28;20581;-57
2023/08/21 11:05:10;;;;;;;1.50;1.40;;;23.00;99.90;;;;;;5049257;28;20473;-57
2023/08/21 11:07:40;;;;;;;2.37;1.43;;;23.10;99.90;;;;;;5035332;28;20508;-57
2023/08/21 11:10:10;;;;;;;2.03;1.30;;;23.10;99.90;;;;;;5036970;28;20971;-57
2023/08/21 11:12:48;;;;;;;1.50;1.20;;;23.20;99.90;;;;;;5042992;28;21006;-57
2023/08/21 11:15:17;;;;;;;1.57;1.30;;;23.30;99.90;;;;;;5055150;28;20482;-57
2023/08/21 11:17:57;;;;;;;1.83;1.70;;;23.40;99.90;;;;;;5046519;28;21023;-58
2023/08/21 11:20:29;;;;;;;2.43;1.53;;;23.50;99.90;;;;;;5043655;28;20473;-57
2023/08/21 11:22:58;;;;;;;3.97;1.37;;;23.60;99.90;;;;;;5043438;28;20943;-58
2023/08/21 11:25:27;;;;;;;2.70;1.60;;;23.80;99.90;;;;;;5048119;28;20949;-57
2023/08/21 11:27:55;;;;;;;4.00;1.73;;;23.90;99.90;;;;;;5051400;28;20835;-57
2023/08/21 11:30:23;;;;;;;2.97;1.47;;;24.00;99.90;;;;;;5052785;28;20573;-59
2023/08/21 11:33:09;;;;;;;4.03;1.33;;;24.10;99.90;;;;;;5050067;28;20490;-59
2023/08/21 11:35:38;;;;;;;1.87;1.40;;;24.20;99.90;;;;;;5045468;28;20490;-58
2023/08/21 11:38:06;;;;;;;1.60;1.50;;;24.40;99.90;;;;;;5054131;28;20791;-58
2023/08/21 11:40:37;;;;;;;2.83;1.50;;;24.40;99.90;;;;;;5049913;28;20466;-58
2023/08/21 11:43:07;;;;;;;2.83;1.50;;;24.50;99.90;;;;;;5054409;28;20489;-59
2023/08/21 11:45:35;;;;;;;2.30;1.40;;;24.50;99.90;;;;;;5045223;28;20494;-57
2023/08/21 11:48:25;;;;;;;3.30;1.30;;;24.50;99.90;;;;;;5049683;28;20822;-58
2023/08/21 11:50:54;;;;;;;1.30;1.20;;;24.60;99.90;;;;;;5046168;28;20511;-58
2023/08/21 11:53:32;;;;;;;2.83;1.47;;;24.70;99.90;;;;;;5045088;28;20495;-58
2023/08/21 11:56:00;;;;;;;2.60;1.93;;;24.80;99.90;;;;;;5054032;28;20557;-58
2023/08/21 11:58:29;;;;;;;2.03;1.60;;;24.80;99.90;;;;;;5048750;28;21109;-58
2023/08/21 12:01:04;;;;;;;2.83;1.60;;;25.00;99.90;;;;;;5052307;28;21507;-58
2023/08/21 12:03:38;;;;;;;2.50;1.60;;;25.10;99.90;;;;;;5047669;28;20473;-58
2023/08/21 12:06:08;;;;;;;1.70;1.33;;;25.20;99.90;;;;;;5052987;28;21023;-58
2023/08/21 12:08:36;;;;;;;1.57;1.30;;;25.40;99.90;;;;;;5048542;28;20609;-57
2023/08/21 12:11:04;;;;;;;2.17;1.60;;;25.50;99.90;;;;;;5044978;28;20934;-58
2023/08/21 12:13:33;;;;;;;2.57;1.17;;;25.60;99.90;;;;;;5052148;28;20503;-58
2023/08/21 12:16:03;;;;;;;2.50;1.27;;;25.60;99.90;;;;;;5047755;28;20486;-58
2023/08/21 12:18:31;;;;;;;1.70;1.30;;;25.70;99.90;;;;;;5043726;28;20474;-58
2023/08/21 12:21:01;;;;;;;2.13;1.33;;;25.70;99.90;;;;;;5043673;28;20561;-57
2023/08/21 12:23:29;;;;;;;2.40;1.20;;;25.80;99.90;;;;;;5053540;28;20559;-58
2023/08/21 12:25:57;;;;;;;4.77;1.67;;;25.90;99.90;;;;;;5048550;28;20486;-58
2023/08/21 12:28:25;;;;;;;5.37;1.60;;;25.90;99.90;;;;;;5047822;28;20579;-58
2023/08/21 12:30:53;;;;;;;2.70;1.50;;;25.90;99.90;;;;;;5048354;28;20561;-58
2023/08/21 12:33:21;;;;;;;4.00;2.13;;;25.90;99.90;;;;;;5039561;28;20543;-58
2023/08/21 12:35:52;;;;;;;1.73;1.33;;;26.00;99.90;;;;;;5029617;28;20499;-57
2023/08/21 12:38:21;;;;;;;2.37;1.37;;;26.10;99.90;;;;;;5004912;28;20472;-58
2023/08/21 12:40:49;;;;;;;2.13;1.47;;;26.20;99.90;;;;;;5013564;28;20558;-59
2023/08/21 12:43:17;;;;;;;2.73;1.50;;;26.20;99.90;;;;;;5010367;28;20933;-58
2023/08/21 12:45:45;;;;;;;1.77;1.30;;;26.20;99.90;;;;;;5027821;28;20490;-58
2023/08/21 12:48:14;;;;;;;2.97;1.87;;;26.10;99.90;;;;;;5034800;28;20478;-57
2023/08/21 12:50:42;;;;;;;3.63;1.53;;;26.20;99.90;;;;;;5043607;28;20515;-58
2023/08/21 12:53:10;;;;;;;3.43;1.40;;;26.20;99.90;;;;;;5046966;28;20525;-58
2023/08/21 12:55:40;;;;;;;2.53;1.20;;;26.10;99.90;;;;;;5043997;28;20573;-58